Time;durP1;ratioP1;P1;durP2;ratioP2;P2;SDS_P1;SDS_P2;PMS_P1;PMS_P2;Temp;Humidity;BMP_temperature;BMP_pressure;BME280_temperature;BME280_humidity;BME280_pressure;Samples;Min_cycle;Max_cycle;Signal;HPM_P1;HPM_P2
2023/12/01 00:02:20;;;;;;;2.25;1.55;;;;;;;-8.15;93.82;100045.31;5038581;28;20076;-55
2023/12/01 00:04:52;;;;;;;4.55;1.63;;;;;;;-8.16;93.36;100053.69;5028149;28;21245;-55
2023/12/01 00:07:23;;;;;;;2.35;1.63;;;;;;;-8.17;92.96;100051.97;5038444;28;20040;-56
2023/12/01 00:09:53;;;;;;;5.43;2.00;;;;;;;-8.13;93.13;100058.97;5037647;28;20094;-56
2023/12/01 00:12:24;;;;;;;1.60;1.50;;;;;;;-8.11;92.95;100058.25;5032301;28;20491;-56
2023/12/01 00:14:54;;;;;;;2.15;1.70;;;;;;;-8.12;92.53;100060.69;5038088;28;20066;-56
2023/12/01 00:17:24;;;;;;;2.83;1.77;;;;;;;-8.10;92.79;100065.06;5028890;28;20080;-55
2023/12/01 00:19:56;;;;;;;1.52;1.42;;;;;;;-8.21;92.11;100050.94;5038412;28;20146;-56
2023/12/01 00:22:27;;;;;;;2.55;1.70;;;;;;;-8.04;92.42;100064.50;5028541;28;20816;-55
2023/12/01 00:24:58;;;;;;;2.95;1.83;;;;;;;-8.00;91.50;100071.50;5037952;28;20048;-56
2023/12/01 00:27:28;;;;;;;2.60;1.60;;;;;;;-7.95;91.39;100072.63;5027742;28;20512;-56
2023/12/01 00:29:59;;;;;;;3.17;1.83;;;;;;;-7.84;91.23;100083.34;5038222;28;20060;-56
2023/12/01 00:32:29;;;;;;;3.67;2.08;;;;;;;-7.68;91.18;100079.97;5027569;28;20140;-56
2023/12/01 00:35:01;;;;;;;4.18;1.90;;;;;;;-7.66;90.09;100083.44;5037770;28;20048;-56
2023/12/01 00:37:32;;;;;;;1.38;1.27;;;;;;;-7.63;88.65;100078.56;5028135;28;20048;-56
2023/12/01 00:40:06;;;;;;;1.70;1.60;;;;;;;-7.60;88.76;100078.72;5038795;28;21078;-56
2023/12/01 00:42:37;;;;;;;2.78;1.60;;;;;;;-7.55;88.48;100072.22;5027301;28;20126;-56
2023/12/01 00:45:08;;;;;;;1.67;1.58;;;;;;;-7.57;88.13;100072.91;5037431;28;20044;-56
2023/12/01 00:47:39;;;;;;;3.17;1.85;;;;;;;-7.61;88.54;100070.22;5026519;28;20158;-56
2023/12/01 00:50:11;;;;;;;1.52;1.42;;;;;;;-7.59;87.42;100060.13;5037550;28;20127;-55
2023/12/01 00:52:42;;;;;;;2.50;1.60;;;;;;;-7.64;86.57;100066.63;5027237;28;20056;-56
2023/12/01 00:55:13;;;;;;;1.85;1.70;;;;;;;-7.65;86.80;100075.06;5037877;28;21206;-56
2023/12/01 00:57:43;;;;;;;5.10;1.60;;;;;;;-7.98;86.70;100026.81;5027786;28;20077;-56
2023/12/01 01:00:14;;;;;;;2.90;1.60;;;;;;;-7.85;86.99;100031.75;5037218;28;20063;-56
2023/12/01 01:02:44;;;;;;;3.25;2.30;;;;;;;-7.60;86.78;100063.50;5026993;28;20046;-56
2023/12/01 01:05:17;;;;;;;2.38;1.50;;;;;;;-7.49;87.37;100077.59;5037813;28;20094;-56
2023/12/01 01:07:47;;;;;;;2.13;1.60;;;;;;;-7.37;87.78;100070.63;5029829;28;20057;-56
2023/12/01 01:10:18;;;;;;;2.70;1.55;;;;;;;-7.33;87.27;100078.41;5041869;28;20048;-56
2023/12/01 01:12:48;;;;;;;2.10;1.80;;;;;;;-7.34;87.82;100062.28;5031198;28;20416;-56
2023/12/01 01:15:19;;;;;;;1.92;1.52;;;;;;;-7.11;87.64;100076.19;5041497;28;20064;-55
2023/12/01 01:17:49;;;;;;;2.17;1.60;;;;;;;-7.15;87.38;100079.34;5030663;28;20052;-56
2023/12/01 01:20:21;;;;;;;4.80;1.70;;;;;;;-7.14;87.33;100080.22;5041285;28;20052;-56
2023/12/01 01:22:52;;;;;;;2.50;1.90;;;;;;;-7.30;87.81;100076.03;5030345;28;20064;-56
2023/12/01 01:25:22;;;;;;;3.08;1.90;;;;;;;-7.20;87.88;100080.78;5041503;28;20147;-56
2023/12/01 01:27:53;;;;;;;3.03;2.00;;;;;;;-7.11;87.56;100080.38;5030792;28;20726;-56
2023/12/01 01:30:23;;;;;;;3.38;1.73;;;;;;;-7.05;87.27;100090.84;5037438;28;20384;-55
2023/12/01 01:32:54;;;;;;;2.65;1.80;;;;;;;-7.02;86.92;100081.72;5040316;28;20079;-56
2023/12/01 01:35:26;;;;;;;4.28;1.90;;;;;;;-6.90;87.56;100080.59;5032399;28;20135;-56
2023/12/01 01:37:57;;;;;;;1.70;1.60;;;;;;;-6.88;87.08;100079.03;5040458;28;20133;-56
2023/12/01 01:40:27;;;;;;;3.42;1.90;;;;;;;-6.83;87.65;100077.59;5030854;28;20671;-56
2023/12/01 01:42:58;;;;;;;3.30;1.73;;;;;;;-6.74;86.95;100078.91;5040678;28;20056;-56
2023/12/01 01:45:28;;;;;;;3.50;1.85;;;;;;;-6.69;86.74;100075.72;5030286;28;20481;-56
2023/12/01 01:48:00;;;;;;;3.88;1.77;;;;;;;-6.59;87.04;100058.47;5041138;28;20059;-56
2023/12/01 01:50:32;;;;;;;3.58;1.95;;;;;;;-6.44;86.62;100077.78;5029187;28;20052;-56
2023/12/01 01:53:03;;;;;;;6.13;2.10;;;;;;;-6.36;85.95;100074.81;5040129;28;20095;-56
2023/12/01 01:55:34;;;;;;;2.95;1.73;;;;;;;-6.23;85.68;100076.28;5030514;28;20070;-56
2023/12/01 01:58:05;;;;;;;5.10;1.85;;;;;;;-6.19;84.45;100075.63;5040435;28;20398;-56
2023/12/01 02:00:36;;;;;;;7.03;3.20;;;;;;;-6.25;84.28;100065.16;5029293;28;20044;-56
2023/12/01 02:03:06;;;;;;;3.80;2.40;;;;;;;-6.31;84.82;100064.88;5039828;28;20067;-56
2023/12/01 02:05:38;;;;;;;4.57;2.28;;;;;;;-6.15;84.79;100062.25;5029492;28;20056;-56
2023/12/01 02:08:25;;;;;;;3.55;1.77;;;;;;;-6.11;84.41;100058.19;5039842;28;20222;-56
2023/12/01 02:10:56;;;;;;;3.25;1.90;;;;;;;-6.21;83.84;100046.72;5029852;28;20066;-56
2023/12/01 02:13:28;;;;;;;3.50;1.90;;;;;;;-6.35;83.95;100052.81;5030125;28;20059;-56
2023/12/01 02:15:59;;;;;;;6.72;2.10;;;;;;;-6.23;85.00;100043.22;5040122;28;20375;-56
2023/12/01 02:18:33;;;;;;;1.63;1.20;;;;;;;-6.78;82.97;99954.19;5029319;28;20040;-56
2023/12/01 02:21:06;;;;;;;4.68;2.20;;;;;;;-6.17;83.50;100043.50;5039873;28;20053;-56
2023/12/01 02:23:38;;;;;;;4.13;2.00;;;;;;;-5.99;84.34;100037.50;5029451;28;20097;-56
2023/12/01 02:26:09;;;;;;;4.93;2.17;;;;;;;-5.85;82.85;100031.34;5039241;28;20075;-55
2023/12/01 02:28:40;;;;;;;5.75;2.10;;;;;;;-5.74;82.70;100032.72;5029041;28;20049;-56
2023/12/01 02:31:10;;;;;;;6.85;2.13;;;;;;;-5.79;81.60;100031.66;5039739;28;20054;-56
2023/12/01 02:33:41;;;;;;;5.50;1.90;;;;;;;-5.97;80.56;100030.84;5029352;28;20604;-56
2023/12/01 02:36:13;;;;;;;3.75;1.55;;;;;;;-5.94;81.01;100033.50;5039818;28;20210;-56
2023/12/01 02:38:45;;;;;;;3.97;1.77;;;;;;;-6.31;81.63;100029.28;5029335;28;20488;-56
2023/12/01 02:41:17;;;;;;;4.63;1.90;;;;;;;-6.42;82.37;100021.13;5039826;28;20125;-56
2023/12/01 02:43:47;;;;;;;2.08;1.88;;;;;;;-6.66;82.25;100025.03;5028760;28;20123;-56
2023/12/01 02:46:22;;;;;;;2.25;1.58;;;;;;;-6.68;82.77;100040.22;5038350;28;20175;-56
2023/12/01 02:48:53;;;;;;;5.72;1.95;;;;;;;-6.70;83.17;100036.72;5029073;28;20938;-55
2023/12/01 02:51:24;;;;;;;5.47;1.77;;;;;;;-6.79;82.69;100033.72;5033439;28;20053;-55
2023/12/01 02:53:56;;;;;;;4.63;2.25;;;;;;;-6.72;83.22;100036.63;5038814;28;20695;-56
2023/12/01 02:56:26;;;;;;;3.58;2.10;;;;;;;-6.67;83.45;100044.50;5028594;28;20060;-55
2023/12/01 02:58:57;;;;;;;5.28;2.08;;;;;;;-6.51;83.02;100041.91;5039070;28;20060;-56
2023/12/01 03:01:28;;;;;;;2.97;1.60;;;;;;;-6.45;81.97;100035.38;5029205;28;20149;-55
2023/12/01 03:03:58;;;;;;;7.88;2.75;;;;;;;-6.36;81.66;100046.00;5039038;28;20048;-58
2023/12/01 03:06:29;;;;;;;4.28;2.08;;;;;;;-6.96;81.44;99918.63;5028546;28;20044;-55
2023/12/01 03:09:01;;;;;;;2.90;1.63;;;;;;;-6.08;80.20;100046.47;5038932;28;20056;-55
2023/12/01 03:11:31;;;;;;;3.53;1.80;;;;;;;-6.05;80.22;100006.72;5028059;28;20145;-54
2023/12/01 03:14:02;;;;;;;3.35;1.75;;;;;;;-5.72;79.25;100043.81;5038696;28;20132;-55
2023/12/01 03:16:33;;;;;;;6.53;1.92;;;;;;;-5.37;79.15;100036.88;5026934;28;20063;-54
2023/12/01 03:19:08;;;;;;;4.07;1.63;;;;;;;-5.27;78.49;100044.13;5037745;28;20052;-55
2023/12/01 03:21:38;;;;;;;3.40;1.67;;;;;;;-5.39;77.19;100032.53;5027418;28;21254;-55
2023/12/01 03:24:10;;;;;;;8.02;1.80;;;;;;;-5.38;77.25;100030.06;5038099;28;20679;-55
2023/12/01 03:26:41;;;;;;;6.80;1.90;;;;;;;-5.39;76.06;100033.44;5027252;28;20076;-55
2023/12/01 03:29:11;;;;;;;3.45;1.60;;;;;;;-5.21;76.59;100034.22;5036650;28;20055;-55
2023/12/01 03:31:42;;;;;;;3.55;1.83;;;;;;;-5.04;76.24;100036.59;5026924;28;20052;-55
2023/12/01 03:34:12;;;;;;;6.05;2.22;;;;;;;-5.07;75.35;100041.56;5038906;28;20056;-56
2023/12/01 03:36:43;;;;;;;4.05;1.83;;;;;;;-5.21;75.59;100034.22;5027779;28;20101;-55
2023/12/01 03:39:15;;;;;;;3.08;1.60;;;;;;;-5.28;74.69;100032.19;5037790;28;20149;-55
2023/12/01 03:41:49;;;;;;;3.30;1.90;;;;;;;-5.33;76.09;100028.59;5027516;28;20048;-55
2023/12/01 03:44:19;;;;;;;3.35;1.48;;;;;;;-5.36;74.74;100033.56;5037424;28;20045;-56
2023/12/01 03:46:51;;;;;;;4.63;1.80;;;;;;;-5.46;75.24;100036.50;5027642;28;20055;-55
2023/12/01 03:49:22;;;;;;;2.25;1.58;;;;;;;-5.48;75.21;100030.47;5038682;28;20064;-56
2023/12/01 03:51:53;;;;;;;3.80;1.30;;;;;;;-5.65;74.99;100033.13;5026935;28;20052;-55
2023/12/01 03:54:25;;;;;;;1.38;1.23;;;;;;;-5.69;74.40;100043.09;5034997;28;20044;-55
2023/12/01 03:56:55;;;;;;;3.25;1.65;;;;;;;-5.64;75.07;100037.44;5037445;28;20075;-55
2023/12/01 03:59:25;;;;;;;4.40;1.50;;;;;;;-5.42;75.10;100044.34;5027954;28;20058;-55
2023/12/01 04:01:56;;;;;;;5.53;1.50;;;;;;;-5.13;74.21;100046.41;5038046;28;20048;-55
2023/12/01 04:04:26;;;;;;;2.95;1.73;;;;;;;-5.28;73.17;99996.53;5028559;28;20415;-54
2023/12/01 04:06:57;;;;;;;3.63;2.03;;;;;;;-5.07;73.33;100044.09;5037685;28;20058;-55
2023/12/01 04:09:29;;;;;;;2.55;1.55;;;;;;;-5.24;73.26;100059.56;5026998;28;20053;-55
2023/12/01 04:12:00;;;;;;;1.42;1.20;;;;;;;-5.30;72.89;100048.22;5037934;28;20044;-55
2023/12/01 04:14:30;;;;;;;4.85;1.45;;;;;;;-5.37;73.52;100049.63;5027426;28;21220;-55
2023/12/01 04:17:08;;;;;;;5.47;2.05;;;;;;;-5.56;73.65;100060.69;5037542;28;20052;-55
2023/12/01 04:19:39;;;;;;;4.88;1.70;;;;;;;-5.55;74.38;100052.22;5027207;28;20059;-55
2023/12/01 04:22:10;;;;;;;1.83;1.25;;;;;;;-5.49;74.46;100051.63;5038188;28;20048;-55
2023/12/01 04:24:42;;;;;;;5.78;1.80;;;;;;;-5.50;73.69;100049.88;5027004;28;20538;-55
2023/12/01 04:27:12;;;;;;;1.23;1.17;;;;;;;-5.43;73.17;100046.81;5037159;28;20060;-55
2023/12/01 04:29:43;;;;;;;2.25;1.27;;;;;;;-5.49;73.12;100049.06;5027188;28;20168;-54
2023/12/01 04:32:13;;;;;;;3.78;1.60;;;;;;;-5.49;72.79;100054.16;5037018;28;20128;-54
2023/12/01 04:34:44;;;;;;;2.30;1.38;;;;;;;-5.49;73.10;100056.72;5026973;28;20131;-54
2023/12/01 04:37:15;;;;;;;3.97;1.52;;;;;;;-5.52;72.70;100057.44;5038049;28;20048;-54
2023/12/01 04:39:47;;;;;;;2.70;1.65;;;;;;;-5.52;73.01;100051.50;5026531;28;20364;-54
2023/12/01 04:42:17;;;;;;;4.68;1.77;;;;;;;-5.50;73.16;100042.25;5040688;28;20060;-54
2023/12/01 04:44:48;;;;;;;3.78;1.30;;;;;;;-5.38;73.00;100062.31;5030216;28;20682;-55
2023/12/01 04:47:21;;;;;;;7.60;1.95;;;;;;;-5.40;72.80;100052.03;5041383;28;20063;-54
2023/12/01 04:49:51;;;;;;;4.85;2.15;;;;;;;-5.28;72.21;100062.75;5030446;28;20407;-56
2023/12/01 04:52:22;;;;;;;4.82;1.92;;;;;;;-5.31;72.22;100057.53;5041639;28;20052;-55
2023/12/01 04:54:54;;;;;;;5.80;1.67;;;;;;;-5.29;72.21;100071.22;5031336;28;20140;-55
2023/12/01 04:57:24;;;;;;;2.78;1.60;;;;;;;-5.34;72.02;100059.06;5032282;28;20141;-55
2023/12/01 04:59:56;;;;;;;3.05;1.80;;;;;;;-5.49;71.74;100069.44;5040123;28;20363;-54
2023/12/01 05:02:26;;;;;;;5.78;1.60;;;;;;;-5.62;72.81;100075.66;5029894;28;20048;-55
2023/12/01 05:04:57;;;;;;;2.17;1.90;;;;;;;-5.70;72.45;100072.78;5040951;28;20151;-54
2023/12/01 05:07:31;;;;;;;4.25;1.75;;;;;;;-5.79;72.72;100064.75;5030970;28;20067;-55
2023/12/01 05:10:08;;;;;;;5.50;1.60;;;;;;;-5.70;73.30;100088.03;5040875;28;20069;-56
2023/12/01 05:12:38;;;;;;;4.03;1.70;;;;;;;-5.86;72.81;100095.78;5030585;28;20418;-55
2023/12/01 05:15:15;;;;;;;3.50;1.58;;;;;;;-5.98;73.32;100090.16;5040232;28;20138;-55
2023/12/01 05:17:47;;;;;;;3.78;1.75;;;;;;;-6.11;73.45;100094.66;5030565;28;20180;-55
2023/12/01 05:20:18;;;;;;;3.33;1.70;;;;;;;-6.18;73.46;100082.44;5040387;28;20044;-55
2023/12/01 05:22:49;;;;;;;1.77;1.10;;;;;;;-6.07;73.45;100101.63;5029046;28;20057;-55
2023/12/01 05:25:25;;;;;;;2.13;1.60;;;;;;;-6.09;73.32;100104.88;5040544;28;20479;-54
2023/12/01 05:27:57;;;;;;;3.90;1.50;;;;;;;-6.28;73.57;100082.81;5030757;28;20114;-55
2023/12/01 05:30:29;;;;;;;3.70;1.90;;;;;;;-6.19;73.47;100095.97;5030153;28;20407;-53
2023/12/01 05:33:00;;;;;;;4.07;1.50;;;;;;;-6.17;74.16;100108.75;5040706;28;20055;-55
2023/12/01 05:35:31;;;;;;;4.53;1.65;;;;;;;-6.28;73.53;100115.88;5029585;28;20080;-55
2023/12/01 05:38:04;;;;;;;4.50;2.00;;;;;;;-6.29;73.98;100119.19;5040654;28;20058;-55
2023/12/01 05:40:37;;;;;;;2.40;1.70;;;;;;;-6.44;74.24;100110.81;5030402;28;20139;-55
2023/12/01 05:43:09;;;;;;;3.83;1.67;;;;;;;-6.41;73.96;100128.78;5044406;28;20052;-55
2023/12/01 05:45:39;;;;;;;4.10;2.10;;;;;;;-6.40;74.06;100131.38;5039380;28;20056;-54
2023/12/01 05:48:10;;;;;;;3.70;1.73;;;;;;;-6.48;73.54;100136.91;5037680;28;20138;-55
2023/12/01 05:50:42;;;;;;;4.18;1.70;;;;;;;-6.62;73.83;100139.63;5021219;28;20050;-55
2023/12/01 05:53:13;;;;;;;5.32;1.90;;;;;;;-6.76;73.76;100140.63;5033338;28;20056;-54
2023/12/01 05:55:45;;;;;;;6.85;2.08;;;;;;;-6.83;74.07;100138.56;5029605;28;20720;-55
2023/12/01 05:58:16;;;;;;;4.55;1.90;;;;;;;-6.99;74.03;100122.53;5040301;28;20062;-55
2023/12/01 06:00:47;;;;;;;6.90;2.00;;;;;;;-7.00;74.30;100141.09;5030536;28;20139;-54
2023/12/01 06:03:19;;;;;;;3.97;2.00;;;;;;;-7.10;74.38;100133.78;5040325;28;20133;-54
2023/12/01 06:05:50;;;;;;;8.15;2.50;;;;;;;-7.12;74.78;100145.53;5025846;28;20048;-53
2023/12/01 06:08:20;;;;;;;3.22;1.70;;;;;;;-7.15;74.93;100140.28;5049403;28;20596;-56
2023/12/01 06:10:52;;;;;;;7.47;1.92;;;;;;;-7.23;74.43;100142.44;5011451;28;20463;-54
2023/12/01 06:13:22;;;;;;;4.82;1.95;;;;;;;-7.25;74.65;100133.00;5034946;28;20147;-55
2023/12/01 06:15:53;;;;;;;2.28;1.60;;;;;;;-7.30;74.93;100139.50;5021270;28;20098;-54
2023/12/01 06:18:23;;;;;;;3.72;1.70;;;;;;;-7.30;75.46;100152.19;5035525;28;20084;-55
2023/12/01 06:20:54;;;;;;;2.55;1.60;;;;;;;-7.25;75.59;100153.31;5039893;28;20062;-54
2023/12/01 06:23:24;;;;;;;2.00;1.80;;;;;;;-7.31;75.44;100155.50;5030016;28;20048;-55
2023/12/01 06:25:57;;;;;;;3.78;1.60;;;;;;;-7.39;75.19;100150.91;5039368;28;20144;-54
2023/12/01 06:28:27;;;;;;;3.65;1.67;;;;;;;-7.46;75.19;100153.91;5029461;28;20059;-55
2023/12/01 06:30:58;;;;;;;3.92;1.73;;;;;;;-7.51;75.51;100150.25;5038755;28;20060;-55
2023/12/01 06:33:29;;;;;;;2.53;1.80;;;;;;;-7.51;75.66;100152.81;5029719;28;20053;-55
2023/12/01 06:35:59;;;;;;;3.55;2.28;;;;;;;-7.52;75.55;100143.41;5039728;28;20174;-55
2023/12/01 06:38:30;;;;;;;11.00;5.05;;;;;;;-7.58;75.45;100158.34;5029428;28;20685;-54
2023/12/01 06:41:01;;;;;;;68.97;19.58;;;;;;;-7.72;75.54;100154.16;5039857;28;20048;-55
2023/12/01 06:43:32;;;;;;;120.50;38.70;;;;;;;-7.99;76.03;100129.03;5028973;28;20047;-55
2023/12/01 06:46:02;;;;;;;82.10;28.77;;;;;;;-8.05;76.23;100156.59;5039486;28;20067;-55
2023/12/01 06:48:33;;;;;;;47.20;20.05;;;;;;;-8.26;76.72;100164.75;5029196;28;20048;-55
2023/12/01 06:51:03;;;;;;;30.25;13.80;;;;;;;-8.45;77.48;100166.16;5039638;28;20789;-55
2023/12/01 06:53:34;;;;;;;7.53;4.10;;;;;;;-8.68;77.92;100171.63;5028350;28;20060;-55
2023/12/01 06:56:06;;;;;;;5.28;3.25;;;;;;;-8.92;78.34;100170.19;5039141;28;20601;-55
2023/12/01 06:58:37;;;;;;;6.55;2.30;;;;;;;-9.13;79.05;100173.19;5028944;28;20135;-55
2023/12/01 07:01:08;;;;;;;2.97;2.10;;;;;;;-9.20;79.89;100176.13;5039389;28;20048;-55
2023/12/01 07:03:38;;;;;;;4.25;2.30;;;;;;;-9.28;80.17;100177.31;5027098;28;20067;-55
2023/12/01 07:06:09;;;;;;;4.85;2.05;;;;;;;-9.43;80.50;100181.44;5038845;28;20037;-55
2023/12/01 07:08:40;;;;;;;7.90;2.00;;;;;;;-9.50;81.38;100184.38;5028293;28;20057;-55
2023/12/01 07:11:12;;;;;;;4.15;2.03;;;;;;;-9.62;81.82;100185.34;5039069;28;20102;-55
2023/12/01 07:13:43;;;;;;;5.38;1.92;;;;;;;-9.87;81.84;100182.06;5028242;28;20096;-55
2023/12/01 07:16:15;;;;;;;4.10;3.50;;;;;;;-10.12;82.55;100174.56;5038619;28;20048;-56
2023/12/01 07:18:46;;;;;;;2.85;1.90;;;;;;;-10.15;83.41;100185.34;5027757;28;20440;-55
2023/12/01 07:21:16;;;;;;;6.55;2.70;;;;;;;-10.10;84.53;100189.06;5038516;28;20076;-55
2023/12/01 07:23:47;;;;;;;65.20;18.27;;;;;;;-10.08;84.94;100190.03;5028176;28;20048;-56
2023/12/01 07:26:19;;;;;;;98.00;24.35;;;;;;;-10.12;85.68;100175.44;5039016;28;20159;-56
2023/12/01 07:28:49;;;;;;;79.50;21.25;;;;;;;-10.01;86.29;100193.81;5008737;28;20079;-56
2023/12/01 07:31:20;;;;;;;77.57;19.52;;;;;;;-9.94;86.83;100195.09;5019729;28;20779;-56
2023/12/01 07:33:50;;;;;;;173.63;43.90;;;;;;;-9.94;87.20;100200.13;5008689;28;20159;-56
2023/12/01 07:36:21;;;;;;;171.70;47.67;;;;;;;-9.86;87.59;100194.81;5019265;28;20122;-56
2023/12/01 07:39:06;;;;;;;160.25;43.03;;;;;;;-9.82;87.91;100205.97;5018720;28;20057;-55
2023/12/01 07:41:40;;;;;;;108.47;28.40;;;;;;;-9.86;87.34;100206.56;5008157;28;20091;-55
2023/12/01 07:44:11;;;;;;;19.05;7.75;;;;;;;-10.17;86.62;100209.66;5024047;28;20052;-56
2023/12/01 07:46:41;;;;;;;13.98;5.82;;;;;;;-10.37;86.71;100212.56;5026357;28;20064;-56
2023/12/01 07:49:12;;;;;;;6.80;3.85;;;;;;;-10.62;86.37;100215.97;5034750;28;20059;-55
2023/12/01 07:51:43;;;;;;;4.63;3.00;;;;;;;-10.80;86.33;100224.84;5025676;28;22516;-56
2023/12/01 07:54:13;;;;;;;6.50;3.17;;;;;;;-10.87;87.39;100229.47;5037013;28;20048;-56
2023/12/01 07:56:46;;;;;;;6.00;3.00;;;;;;;-10.89;87.73;100231.00;5027148;28;20527;-56
2023/12/01 07:59:16;;;;;;;4.28;2.42;;;;;;;-10.89;88.74;100236.06;5038002;28;20052;-55
2023/12/01 08:01:47;;;;;;;3.55;2.20;;;;;;;-10.77;89.88;100235.16;5025034;28;20317;-56
2023/12/01 08:04:18;;;;;;;5.30;2.50;;;;;;;-10.67;90.59;100247.63;5038672;28;20057;-56
2023/12/01 08:06:49;;;;;;;7.30;4.47;;;;;;;-10.51;91.29;100245.34;5023247;28;20049;-55
2023/12/01 08:09:20;;;;;;;7.55;3.33;;;;;;;-10.25;92.21;100248.72;5035775;28;20705;-55
2023/12/01 08:11:52;;;;;;;13.13;4.95;;;;;;;-10.13;92.05;100258.72;5025484;28;20053;-56
2023/12/01 08:14:22;;;;;;;91.32;23.55;;;;;;;-10.16;91.52;100249.28;5037538;28;20167;-55
2023/12/01 08:16:53;;;;;;;30.65;9.52;;;;;;;-10.29;89.99;100261.94;5030424;28;20049;-55
2023/12/01 08:19:24;;;;;;;34.28;13.45;;;;;;;-10.44;89.32;100262.66;5037315;28;20057;-55
2023/12/01 08:21:54;;;;;;;21.95;10.38;;;;;;;-10.47;89.29;100264.97;5041370;28;20062;-56
2023/12/01 08:24:25;;;;;;;45.55;19.15;;;;;;;-10.48;89.10;100265.78;5030757;28;20066;-55
2023/12/01 08:27:04;;;;;;;67.93;29.75;;;;;;;-10.60;88.05;100264.06;5041652;28;20059;-55
2023/12/01 08:29:35;;;;;;;42.35;21.75;;;;;;;-10.77;88.21;100267.97;5031206;28;20060;-56
2023/12/01 08:32:07;;;;;;;21.20;12.52;;;;;;;-10.70;88.98;100272.66;5037513;28;20140;-56
2023/12/01 08:34:37;;;;;;;9.80;5.85;;;;;;;-10.52;89.72;100273.03;5021123;28;20056;-56
2023/12/01 08:37:09;;;;;;;5.93;2.67;;;;;;;-10.39;90.25;100267.16;5027827;28;20049;-56
2023/12/01 08:39:50;;;;;;;3.97;2.10;;;;;;;-10.31;90.84;100273.59;5014334;28;20049;-56
2023/12/01 08:42:22;;;;;;;4.85;3.45;;;;;;;-10.33;90.06;100254.91;5036338;28;20060;-56
2023/12/01 08:44:53;;;;;;;6.63;4.65;;;;;;;-10.51;89.43;100260.50;5016630;28;20046;-56
2023/12/01 08:47:24;;;;;;;5.53;3.50;;;;;;;-10.61;89.29;100268.22;5026941;28;20044;-56
2023/12/01 08:49:56;;;;;;;5.60;3.53;;;;;;;-10.56;89.59;100266.00;5031878;28;20045;-56
2023/12/01 08:52:26;;;;;;;5.32;3.22;;;;;;;-10.56;89.41;100271.94;5021401;28;20052;-56
2023/12/01 08:54:58;;;;;;;5.30;2.65;;;;;;;-10.54;89.42;100277.97;5031684;28;20052;-56
2023/12/01 08:57:31;;;;;;;4.90;3.00;;;;;;;-10.57;89.40;100270.19;5021853;28;20059;-56
2023/12/01 09:00:02;;;;;;;6.65;4.43;;;;;;;-10.45;89.56;100276.06;5034554;28;20061;-55
2023/12/01 09:02:32;;;;;;;12.63;5.00;;;;;;;-10.58;88.40;100278.56;5030031;28;20139;-56
2023/12/01 09:05:04;;;;;;;9.55;5.13;;;;;;;-10.66;87.97;100295.72;5040422;28;20138;-56
2023/12/01 09:07:34;;;;;;;23.17;8.60;;;;;;;-10.75;87.18;100294.22;5030725;28;20067;-56
2023/12/01 09:10:05;;;;;;;28.17;12.35;;;;;;;-10.88;86.68;100293.34;5028681;28;20751;-56
2023/12/01 09:12:38;;;;;;;17.58;7.43;;;;;;;-10.95;86.50;100298.75;5035412;28;20069;-56
2023/12/01 09:15:09;;;;;;;10.52;5.50;;;;;;;-10.90;86.46;100305.00;5050572;28;20161;-56
2023/12/01 09:17:40;;;;;;;25.88;9.27;;;;;;;-10.95;86.01;100302.94;5036204;28;20052;-56
2023/12/01 09:20:11;;;;;;;28.40;10.93;;;;;;;-11.04;85.75;100315.75;5033992;28;20123;-56
2023/12/01 09:22:42;;;;;;;27.23;9.40;;;;;;;-11.11;86.04;100313.56;5022377;28;20145;-56
2023/12/01 09:25:12;;;;;;;26.25;9.65;;;;;;;-11.22;85.90;100324.56;5031713;28;20128;-56
2023/12/01 09:27:44;;;;;;;23.52;9.85;;;;;;;-11.12;86.85;100321.94;5019095;28;20068;-56
2023/12/01 09:30:16;;;;;;;25.17;9.20;;;;;;;-11.02;87.11;100329.38;5035798;28;20053;-56
2023/12/01 09:32:47;;;;;;;42.97;14.80;;;;;;;-11.00;87.39;100327.84;5028507;28;20052;-56
2023/12/01 09:35:19;;;;;;;24.67;10.20;;;;;;;-11.07;87.12;100335.75;5039781;28;20055;-55
2023/12/01 09:38:10;;;;;;;22.90;9.27;;;;;;;-11.17;87.70;100335.88;5023217;28;20609;-55
2023/12/01 09:40:43;;;;;;;14.73;7.00;;;;;;;-11.16;87.88;100340.13;5030883;28;20062;-55
2023/12/01 09:43:19;;;;;;;24.48;10.30;;;;;;;-11.16;88.16;100345.16;5050829;28;20056;-56
2023/12/01 09:45:51;;;;;;;19.88;7.47;;;;;;;-11.24;88.01;100336.19;5020859;28;20555;-54
2023/12/01 09:48:22;;;;;;;16.70;7.60;;;;;;;-11.28;88.46;100337.63;5030979;28;20143;-55
2023/12/01 09:50:52;;;;;;;17.95;4.70;;;;;;;-11.32;88.47;100328.94;5029907;28;20556;-56
2023/12/01 09:53:23;;;;;;;13.85;4.53;;;;;;;-11.34;88.73;100335.53;5039596;28;20486;-55
2023/12/01 09:55:53;;;;;;;11.27;3.58;;;;;;;-11.34;88.95;100327.97;5040805;28;20061;-56
2023/12/01 09:58:28;;;;;;;13.32;4.88;;;;;;;-11.29;89.38;100329.16;5035166;28;20056;-55
2023/12/01 10:00:59;;;;;;;36.08;20.98;;;;;;;-11.25;89.48;100329.41;5040737;28;20208;-56
2023/12/01 10:03:30;;;;;;;24.50;10.43;;;;;;;-11.31;89.38;100335.75;5030895;28;20032;-55
2023/12/01 10:06:00;;;;;;;25.35;10.60;;;;;;;-11.33;89.87;100327.22;5040915;28;20136;-55
2023/12/01 10:08:33;;;;;;;9.90;4.85;;;;;;;-11.23;90.44;100322.78;5030790;28;20597;-56
2023/12/01 10:11:20;;;;;;;6.93;3.05;;;;;;;-11.07;91.37;100341.66;5040120;28;20056;-55
2023/12/01 10:13:53;;;;;;;10.40;5.78;;;;;;;-10.93;91.92;100337.59;5029798;28;20810;-56
2023/12/01 10:16:23;;;;;;;31.75;9.60;;;;;;;-11.00;91.28;100327.84;5036574;28;20114;-54
2023/12/01 10:19:01;;;;;;;14.27;6.05;;;;;;;-10.90;91.25;100330.22;5040058;28;20066;-55
2023/12/01 10:21:52;;;;;;;11.05;4.72;;;;;;;-10.94;90.24;100348.44;5029446;28;20084;-55
2023/12/01 10:24:23;;;;;;;15.45;6.72;;;;;;;-11.59;88.73;100286.63;5035760;28;20053;-55
2023/12/01 10:26:56;;;;;;;15.77;7.55;;;;;;;-11.78;88.72;100270.22;5029558;28;20160;-55
2023/12/01 10:29:30;;;;;;;16.60;6.82;;;;;;;-11.48;87.96;100356.38;5029300;28;20045;-55
2023/12/01 10:32:02;;;;;;;15.55;6.78;;;;;;;-11.67;87.49;100348.25;5040141;28;20045;-56
2023/12/01 10:34:33;;;;;;;20.90;7.05;;;;;;;-11.77;86.84;100367.72;5029448;28;20194;-56
2023/12/01 10:37:05;;;;;;;18.17;7.65;;;;;;;-11.94;86.13;100363.09;5027228;28;20063;-56
2023/12/01 10:39:37;;;;;;;15.50;7.00;;;;;;;-12.04;85.82;100370.75;5025241;28;20488;-56
2023/12/01 10:42:10;;;;;;;15.57;7.05;;;;;;;-12.31;86.10;100309.13;5038531;28;20041;-56
2023/12/01 10:44:44;;;;;;;15.48;7.35;;;;;;;-11.92;86.17;100373.31;5029167;28;20524;-55
2023/12/01 10:47:18;;;;;;;20.35;7.72;;;;;;;-11.96;85.80;100367.16;5039736;28;20133;-55
2023/12/01 10:49:50;;;;;;;13.80;5.90;;;;;;;-12.05;85.57;100369.00;5030820;28;20475;-56
2023/12/01 10:52:21;;;;;;;12.35;5.40;;;;;;;-12.19;85.22;100361.28;5050064;28;20048;-56
2023/12/01 10:54:51;;;;;;;10.50;5.20;;;;;;;-12.24;85.21;100362.56;5009796;28;20048;-55
2023/12/01 10:57:32;;;;;;;9.98;4.85;;;;;;;-12.29;85.28;100373.94;5031883;28;20148;-56
2023/12/01 11:00:09;;;;;;;10.32;4.80;;;;;;;-12.31;85.36;100372.06;5028900;28;20057;-56
2023/12/01 11:02:40;;;;;;;10.13;4.80;;;;;;;-12.20;85.91;100363.69;5028376;28;20105;-55
2023/12/01 11:05:12;;;;;;;11.68;5.57;;;;;;;-12.11;86.05;100363.50;5039259;28;20056;-56
2023/12/01 11:08:05;;;;;;;11.13;4.88;;;;;;;-12.11;85.84;100366.00;5028340;28;20080;-55
2023/12/01 11:10:43;;;;;;;8.50;4.28;;;;;;;-12.36;84.77;100371.72;5028673;28;20083;-56
2023/12/01 11:13:26;;;;;;;9.48;5.05;;;;;;;-12.53;84.66;100372.06;5048193;28;20048;-56
2023/12/01 11:15:59;;;;;;;14.75;5.57;;;;;;;-12.72;84.75;100353.06;5031031;28;20052;-56
2023/12/01 11:18:30;;;;;;;17.50;5.88;;;;;;;-12.65;84.94;100372.91;5023898;28;20044;-56
2023/12/01 11:21:02;;;;;;;14.35;6.22;;;;;;;-12.66;84.96;100376.16;5038713;28;20942;-56
2023/12/01 11:23:34;;;;;;;21.35;7.10;;;;;;;-12.73;84.95;100378.94;5028242;28;20132;-55
2023/12/01 11:26:08;;;;;;;14.25;5.85;;;;;;;-12.93;84.75;100368.97;5039137;28;20143;-56
2023/12/01 11:28:46;;;;;;;15.32;5.93;;;;;;;-12.89;85.09;100371.00;5028911;28;20596;-55
2023/12/01 11:31:20;;;;;;;33.42;13.93;;;;;;;-12.96;85.33;100373.78;5039420;28;20052;-55
2023/12/01 11:33:52;;;;;;;37.95;16.35;;;;;;;-13.07;85.26;100371.31;5018932;28;20052;-56
2023/12/01 11:36:24;;;;;;;82.00;39.35;;;;;;;-13.19;85.15;100370.34;5035856;28;20492;-55
2023/12/01 11:39:16;;;;;;;70.97;35.17;;;;;;;-13.22;85.08;100385.19;5038359;28;20161;-55
2023/12/01 11:41:51;;;;;;;47.13;25.38;;;;;;;-13.16;85.34;100395.72;5028244;28;20608;-55